Time;durP1;ratioP1;P1;durP2;ratioP2;P2;SDS_P1;SDS_P2;PMS_P1;PMS_P2;Temp;Humidity;BMP_temperature;BMP_pressure;BME280_temperature;BME280_humidity;BME280_pressure;Samples;Min_cycle;Max_cycle;Signal;HPM_P1;HPM_P2
2022/10/13 07:10:03;;;;;;;12.50;9.68;;;;;;;12.36;77.02;97141.66;6255936;22;20015;-83
2022/10/13 07:12:37;;;;;;;14.20;9.80;;;;;;;12.39;76.88;97147.53;6275641;23;20019;-83
2022/10/13 07:15:09;;;;;;;;;;;;;;;12.43;77.23;97151.44;6276146;23;20008;-83
2022/10/13 07:17:40;;;;;;;13.20;9.57;;;;;;;12.42;76.59;97152.41;6275261;23;19914;-83
2022/10/13 07:20:25;;;;;;;12.38;9.43;;;;;;;12.43;76.98;97151.44;6275712;23;20043;-84
2022/10/13 07:22:56;;;;;;;13.73;10.40;;;;;;;12.43;76.88;97144.38;6275039;23;20012;-83
2022/10/13 07:25:30;;;;;;;14.85;10.10;;;;;;;12.45;77.26;97136.38;6250132;23;20008;-83
2022/10/13 07:28:02;;;;;;;14.50;10.05;;;;;;;12.49;76.95;97137.63;6274419;23;20055;-83
2022/10/13 07:38:00;;;;;;;13.10;9.55;;;;;;;12.66;77.15;97140.84;6275966;23;20014;-86
2022/10/13 08:45:30;;;;;;;14.75;9.13;;;;;;;14.25;72.80;97114.63;6259874;22;1248252;-86
2022/10/13 08:48:18;;;;;;;12.18;8.90;;;;;;;14.35;72.66;97123.78;6326532;22;20085;-86
2022/10/13 08:50:49;;;;;;;15.30;8.45;;;;;;;14.48;72.47;97115.16;6327927;22;20045;-89
2022/10/13 08:53:26;;;;;;;13.63;8.63;;;;;;;14.67;71.78;97121.56;6329846;22;20042;-88
2022/10/13 08:55:57;;;;;;;14.70;8.98;;;;;;;14.84;71.55;97120.22;6329385;22;20019;-87
2022/10/13 08:58:28;;;;;;;13.88;9.38;;;;;;;15.01;71.23;97114.63;6324702;22;20015;-84
2022/10/13 09:01:06;;;;;;;10.45;8.23;;;;;;;15.27;70.53;97120.97;6320827;22;20015;-83
2022/10/13 09:03:45;;;;;;;12.65;8.27;;;;;;;15.42;69.25;97114.53;6320504;22;20019;-83
2022/10/13 09:06:26;;;;;;;11.90;8.15;;;;;;;15.52;69.00;97113.31;6319964;22;20446;-84
2022/10/13 09:08:56;;;;;;;13.43;8.43;;;;;;;15.67;68.68;97113.94;6319523;22;20019;-86
2022/10/13 09:11:32;;;;;;;12.88;7.82;;;;;;;15.84;67.90;97120.47;6321065;22;20035;-83
2022/10/13 09:14:05;;;;;;;8.55;7.07;;;;;;;15.99;67.43;97115.00;6320407;22;20042;-85
2022/10/13 09:16:37;;;;;;;11.95;8.30;;;;;;;16.11;67.50;97122.28;6319166;22;20030;-81
2022/10/13 09:19:20;;;;;;;14.90;8.38;;;;;;;16.21;66.93;97112.97;6319909;22;20015;-83
2022/10/13 09:21:48;;;;;;;13.30;8.30;;;;;;;16.26;66.87;97115.78;6320147;22;20366;-81
2022/10/13 09:24:17;;;;;;;10.10;6.60;;;;;;;16.28;66.61;97105.84;6319442;22;20101;-85
2022/10/13 09:26:48;;;;;;;10.07;6.70;;;;;;;16.31;66.74;97106.47;6319160;22;20011;-83
2022/10/13 09:29:18;;;;;;;12.65;9.10;;;;;;;16.30;66.29;97105.66;6321020;22;20062;-86
2022/10/13 09:31:47;;;;;;;15.32;8.85;;;;;;;16.27;66.31;97098.19;6320195;22;20019;-85
2022/10/13 09:34:24;;;;;;;16.08;9.45;;;;;;;16.23;66.24;97091.69;6319609;22;20025;-86
2022/10/13 09:36:59;;;;;;;13.70;9.32;;;;;;;16.20;66.13;97095.56;6319874;22;20061;-82
2022/10/13 09:39:28;;;;;;;14.43;9.68;;;;;;;16.15;66.35;97092.72;6318520;22;20026;-85
2022/10/13 09:42:20;;;;;;;14.30;9.20;;;;;;;16.13;66.38;97094.75;6318354;22;20029;-82
2022/10/13 09:45:17;;;;;;;11.98;8.77;;;;;;;16.10;66.57;97087.25;6319045;22;20067;-89
2022/10/13 09:47:55;;;;;;;14.23;7.78;;;;;;;16.10;66.73;97086.47;6319760;22;20019;-84
2022/10/13 09:50:29;;;;;;;12.10;8.70;;;;;;;16.12;66.76;97087.88;6323909;22;20042;-84
2022/10/13 09:53:25;;;;;;;16.27;8.95;;;;;;;16.14;66.27;97082.41;6324804;22;20019;-86
2022/10/13 09:56:24;;;;;;;11.05;8.02;;;;;;;16.16;66.59;97083.00;6324905;22;20015;-88
2022/10/13 09:59:07;;;;;;;9.73;6.85;;;;;;;16.19;66.36;97086.03;6323184;22;20039;-85
2022/10/13 10:01:54;;;;;;;13.15;8.23;;;;;;;16.27;66.21;97087.66;6324206;22;20015;-87
2022/10/13 10:04:36;;;;;;;13.52;7.80;;;;;;;16.35;66.05;97078.72;6328591;22;20049;-88
2022/10/13 10:07:11;;;;;;;13.95;8.65;;;;;;;16.44;65.31;97077.47;6328535;22;20011;-88
2022/10/13 10:09:50;;;;;;;14.73;7.70;;;;;;;16.52;65.41;97071.16;6326077;22;20019;-88
2022/10/13 10:12:29;;;;;;;11.88;7.55;;;;;;;16.67;65.08;97077.00;6325112;22;20030;-87
2022/10/13 10:15:04;;;;;;;15.07;8.15;;;;;;;16.75;64.63;97070.66;6324180;22;20077;-86
2022/10/13 10:17:41;;;;;;;10.77;7.47;;;;;;;16.80;64.53;97068.25;6325058;22;20038;-85
2022/10/13 10:20:39;;;;;;;24.13;8.88;;;;;;;16.84;64.25;97069.47;6324023;22;20091;-89
2022/10/13 10:23:22;;;;;;;14.95;9.52;;;;;;;16.88;64.14;97074.09;6322990;22;20454;-84
2022/10/13 10:26:01;;;;;;;12.85;7.70;;;;;;;17.02;63.92;97084.56;6322364;22;20015;-83
2022/10/13 10:28:50;;;;;;;16.73;8.82;;;;;;;17.20;63.53;97087.31;6321596;22;20026;-86
2022/10/13 10:31:37;;;;;;;9.15;6.45;;;;;;;17.23;63.76;97078.97;6322286;22;20019;-85
2022/10/13 10:34:26;;;;;;;17.88;10.35;;;;;;;17.19;63.12;97077.78;6318071;22;20026;-85
2022/10/13 10:37:23;;;;;;;15.60;8.23;;;;;;;17.15;63.23;97073.97;6319857;22;20023;-86
2022/10/13 10:40:21;;;;;;;11.95;6.90;;;;;;;17.16;63.79;97082.66;6319940;22;20019;-85
2022/10/13 10:43:08;;;;;;;16.88;7.78;;;;;;;17.22;63.06;97076.56;6319350;22;20019;-83
2022/10/13 10:45:44;;;;;;;14.43;6.53;;;;;;;17.25;62.87;97070.84;6326655;22;20015;-83
2022/10/13 10:48:26;;;;;;;13.50;8.35;;;;;;;17.25;62.66;97065.56;6350138;22;20027;-87
2022/10/13 10:51:10;;;;;;;16.23;7.07;;;;;;;17.25;63.02;97062.94;6349827;22;20015;-85
2022/10/13 10:54:10;;;;;;;9.20;6.55;;;;;;;17.31;62.67;97059.44;6350158;22;20018;-82
2022/10/13 10:56:44;;;;;;;10.05;5.90;;;;;;;17.36;62.50;97061.44;6352315;22;20098;-86
2022/10/13 10:59:26;;;;;;;12.70;6.70;;;;;;;17.34;61.76;97056.41;6352476;22;20022;-86
2022/10/13 11:02:03;;;;;;;15.75;7.30;;;;;;;17.28;61.83;97055.41;6351679;22;20014;-86
2022/10/13 11:04:38;;;;;;;9.90;6.25;;;;;;;17.31;62.27;97062.09;6352176;22;20045;-87
2022/10/13 11:07:11;;;;;;;9.75;6.40;;;;;;;17.36;61.97;97050.91;6351773;22;20358;-86
2022/10/13 11:10:04;;;;;;;12.13;6.03;;;;;;;17.38;62.44;97043.59;6351689;22;20092;-87
2022/10/13 11:12:47;;;;;;;15.05;6.63;;;;;;;17.46;62.33;97048.59;6351150;22;20015;-84
2022/10/13 11:15:23;;;;;;;15.52;7.18;;;;;;;17.52;62.44;97050.38;6350815;22;20040;-87
2022/10/13 11:17:51;;;;;;;9.88;6.30;;;;;;;17.57;61.83;97034.72;6350181;22;20097;-88
2022/10/13 11:20:48;;;;;;;10.00;5.68;;;;;;;17.61;61.53;97035.91;6352763;22;20388;-86
2022/10/13 11:23:33;;;;;;;10.05;6.30;;;;;;;17.63;61.42;97033.84;6351461;22;20019;-85
2022/10/13 11:26:28;;;;;;;9.95;5.72;;;;;;;17.66;61.49;97024.69;6350777;22;20018;-83
2022/10/13 11:28:56;;;;;;;11.50;6.35;;;;;;;17.66;61.40;97020.22;6349879;22;20501;-84
2022/10/13 11:31:27;;;;;;;8.63;6.25;;;;;;;17.64;61.73;97024.91;6349445;22;20014;-84
2022/10/13 11:34:02;;;;;;;10.48;6.15;;;;;;;17.60;61.77;97015.84;6347681;22;20015;-89
2022/10/13 11:36:56;;;;;;;10.23;6.75;;;;;;;17.55;61.01;97013.03;6348450;22;20015;-84
2022/10/13 11:40:00;;;;;;;7.68;5.90;;;;;;;17.55;62.21;97010.38;6347823;22;20015;-86
2022/10/13 11:42:47;;;;;;;10.18;5.68;;;;;;;17.55;62.13;97006.94;6348558;22;20010;-86
2022/10/13 11:45:28;;;;;;;7.72;5.60;;;;;;;17.53;61.81;97006.34;6348042;22;20027;-86
2022/10/13 11:48:15;;;;;;;14.60;6.53;;;;;;;17.50;61.68;97004.97;6347908;22;20377;-82
2022/10/13 11:50:50;;;;;;;10.60;6.53;;;;;;;17.46;62.08;97001.13;6346776;22;20419;-86
2022/10/13 11:53:22;;;;;;;12.98;6.60;;;;;;;17.41;62.30;97006.25;6346940;22;20015;-84
2022/10/13 11:55:52;;;;;;;11.48;6.90;;;;;;;17.42;62.30;97007.84;6350184;22;20014;-86
2022/10/13 11:58:23;;;;;;;13.02;6.65;;;;;;;17.37;62.50;96997.97;6353090;22;20083;-89
2022/10/13 12:00:53;;;;;;;13.93;7.37;;;;;;;17.35;62.41;96991.28;6353614;22;20019;-86
2022/10/13 12:03:24;;;;;;;11.45;7.07;;;;;;;17.29;62.39;96993.78;6351752;22;20287;-85
2022/10/13 12:05:52;;;;;;;11.15;7.45;;;;;;;17.25;62.56;96987.31;6350961;22;20045;-85
2022/10/13 12:08:20;;;;;;;15.18;6.75;;;;;;;17.22;62.57;96982.44;6349284;22;20026;-87
2022/10/13 12:10:56;;;;;;;12.75;7.25;;;;;;;17.22;62.80;96977.16;6349881;22;20017;-84
2022/10/13 12:13:27;;;;;;;12.63;6.90;;;;;;;17.22;62.78;96976.38;6348911;22;20047;-84
2022/10/13 12:16:02;;;;;;;12.27;6.53;;;;;;;17.19;63.26;96967.06;6349603;22;20041;-84
2022/10/13 12:18:32;;;;;;;12.68;6.53;;;;;;;17.17;63.32;96963.84;6348126;22;20029;-84
2022/10/13 12:21:03;;;;;;;12.48;6.50;;;;;;;17.16;63.00;96964.84;6348668;22;20019;-85
2022/10/13 12:23:32;;;;;;;13.52;6.82;;;;;;;17.14;63.31;96958.19;6348813;22;20018;-84
2022/10/13 12:25:59;;;;;;;13.65;7.72;;;;;;;17.11;63.28;96953.34;6347851;22;20027;-85
2022/10/13 12:28:31;;;;;;;12.60;7.70;;;;;;;17.08;63.42;96950.13;6349519;22;20094;-85
2022/10/13 12:30:59;;;;;;;12.45;6.90;;;;;;;17.10;63.18;96947.28;6347505;22;20078;-82
2022/10/13 12:33:30;;;;;;;12.68;6.43;;;;;;;17.10;63.47;96942.00;6346619;22;20094;-85
2022/10/13 12:36:16;;;;;;;10.57;6.70;;;;;;;17.13;63.87;96949.47;6351514;22;20029;-84
2022/10/13 12:38:48;;;;;;;10.50;7.25;;;;;;;17.12;63.43;96947.88;6350274;22;20010;-83
2022/10/13 12:41:19;;;;;;;12.30;6.78;;;;;;;17.12;63.40;96947.03;6350351;22;20025;-82
2022/10/13 12:43:48;;;;;;;9.80;6.72;;;;;;;17.13;63.31;96946.84;6346607;22;20018;-85
2022/10/13 12:46:39;;;;;;;7.85;6.07;;;;;;;17.16;63.66;96943.75;6348425;22;20011;-85
2022/10/13 12:49:07;;;;;;;10.30;6.38;;;;;;;17.17;63.70;96953.28;6345986;22;20015;-83
2022/10/13 12:51:36;;;;;;;10.70;6.45;;;;;;;17.18;63.21;96954.91;6347657;22;20011;-83
2022/10/13 12:54:09;;;;;;;9.63;7.10;;;;;;;17.18;63.43;96949.63;6345999;22;20037;-86
2022/10/13 12:56:36;;;;;;;10.18;5.95;;;;;;;17.18;63.57;96949.63;6347367;22;20023;-86
2022/10/13 12:59:13;;;;;;;13.18;6.63;;;;;;;17.18;63.90;96951.47;6353894;22;20074;-87
2022/10/13 13:01:40;;;;;;;11.63;7.30;;;;;;;17.18;64.31;96949.63;6354211;22;20019;-87
2022/10/13 13:04:29;;;;;;;9.40;6.10;;;;;;;17.20;64.65;96936.22;6354903;22;20011;-85
2022/10/13 13:07:01;;;;;;;10.48;6.43;;;;;;;17.21;64.56;96933.41;6352203;22;20034;-86
2022/10/13 13:09:31;;;;;;;15.05;6.53;;;;;;;17.24;64.86;96927.69;6351988;22;20021;-88
2022/10/13 13:12:05;;;;;;;11.52;6.35;;;;;;;17.27;64.61;96939.63;6352489;22;20017;-85
2022/10/13 13:14:39;;;;;;;11.32;7.18;;;;;;;17.28;64.29;96934.13;6352438;22;20102;-86
2022/10/13 13:17:12;;;;;;;13.95;7.22;;;;;;;17.30;64.50;96932.09;6352193;22;20011;-85
2022/10/13 13:19:41;;;;;;;14.75;7.40;;;;;;;17.35;64.83;96930.63;6350891;22;20010;-87
2022/10/13 13:22:09;;;;;;;13.95;7.53;;;;;;;17.38;64.90;96928.38;6351643;22;20029;-85
2022/10/13 13:24:38;;;;;;;10.82;7.57;;;;;;;17.43;63.79;96933.00;6349462;22;20070;-85
2022/10/13 13:27:19;;;;;;;14.95;6.47;;;;;;;17.48;63.78;96931.31;6349704;22;20071;-82
2022/10/13 13:29:48;;;;;;;15.15;7.10;;;;;;;17.47;62.82;96921.81;6348023;22;20010;-84
2022/10/13 13:32:20;;;;;;;10.27;5.80;;;;;;;17.48;62.32;96927.88;6347960;22;20023;-82
2022/10/13 13:34:48;;;;;;;10.50;6.33;;;;;;;17.46;62.56;96917.53;6347947;22;20023;-86
2022/10/13 13:37:30;;;;;;;11.88;5.90;;;;;;;17.48;62.35;96910.22;6348414;22;20018;-85
2022/10/13 13:39:58;;;;;;;9.45;4.93;;;;;;;17.50;62.94;96921.34;6346822;22;20023;-81
2022/10/13 13:42:27;;;;;;;9.25;6.50;;;;;;;17.51;62.48;96922.16;6346077;22;20032;-81
2022/10/13 13:44:57;;;;;;;8.70;6.00;;;;;;;17.50;62.43;96908.16;6345641;22;20047;-85
2022/10/13 13:47:26;;;;;;;8.93;5.35;;;;;;;17.51;62.42;96922.16;6346917;22;20014;-81
2022/10/13 13:49:56;;;;;;;9.38;5.40;;;;;;;17.54;62.50;96919.09;6345466;22;20021;-82
2022/10/13 13:52:24;;;;;;;15.05;7.60;;;;;;;17.57;62.33;96909.94;6346080;22;20037;-81
2022/10/13 13:54:54;;;;;;;11.93;6.25;;;;;;;17.61;62.63;96903.22;6344759;22;20019;-89
2022/10/13 13:57:22;;;;;;;13.45;6.43;;;;;;;17.63;62.12;96904.59;6350226;22;20035;-87
2022/10/13 13:59:59;;;;;;;9.35;5.90;;;;;;;17.66;61.79;96898.88;6352637;22;20057;-87
2022/10/13 14:02:46;;;;;;;8.35;6.15;;;;;;;17.66;61.95;96888.31;6353273;22;20022;-86
2022/10/13 14:08:11;;;;;;;9.45;5.45;;;;;;;17.71;62.42;96883.22;6355630;22;20019;-88
2022/10/13 14:10:46;;;;;;;10.93;5.63;;;;;;;17.75;61.97;96875.63;6355305;22;20017;-91
2022/10/13 14:13:30;;;;;;;12.00;5.57;;;;;;;17.77;61.81;96867.50;6353248;22;20019;-86
2022/10/13 14:15:59;;;;;;;9.98;5.15;;;;;;;17.79;61.59;96874.19;6354383;22;20018;-86
2022/10/13 14:18:29;;;;;;;9.45;5.40;;;;;;;17.80;61.46;96877.63;6352009;22;20070;-86
2022/10/13 14:20:57;;;;;;;13.23;5.45;;;;;;;17.81;61.47;96873.97;6355499;22;20093;-89
2022/10/13 14:23:25;;;;;;;11.45;5.18;;;;;;;17.83;61.62;96871.94;6351527;22;20066;-86
2022/10/13 14:26:06;;;;;;;11.52;5.72;;;;;;;17.83;61.35;96872.75;6349545;22;20538;-88
2022/10/13 14:28:40;;;;;;;12.02;5.57;;;;;;;17.85;61.26;96878.59;6349760;22;20097;-87
2022/10/13 14:31:24;;;;;;;10.95;6.30;;;;;;;17.84;61.34;96884.94;6354029;22;20335;-90
2022/10/13 14:33:54;;;;;;;11.25;5.63;;;;;;;17.82;61.19;96876.44;6354963;22;20018;-91
2022/10/13 14:36:22;;;;;;;17.80;5.80;;;;;;;17.81;61.30;96881.88;6353430;22;20094;-89
2022/10/13 14:38:50;;;;;;;8.48;5.68;;;;;;;17.77;61.40;96873.59;6356325;22;20090;-90
2022/10/13 14:41:18;;;;;;;11.23;5.72;;;;;;;17.75;61.40;96880.91;6355140;22;20011;-88
2022/10/13 14:43:46;;;;;;;9.02;5.45;;;;;;;17.72;61.85;96876.09;6356032;22;20021;-88
